createdAt,value
2018-06-08T00:01:39.514Z,99698.91
2018-06-08T00:04:07.166Z,99696.96
2018-06-08T00:06:34.756Z,99695.53
2018-06-08T00:09:03.194Z,99690.55
2018-06-08T00:11:30.849Z,99689.92
2018-06-08T00:13:58.505Z,99686.93
2018-06-08T00:16:26.155Z,99681.51
2018-06-08T00:18:53.747Z,99691.52
2018-06-08T00:21:21.317Z,99692.02
2018-06-08T00:23:48.965Z,99685.38
2018-06-08T00:26:16.609Z,99684.16
2018-06-08T00:28:47.261Z,99683.50
2018-06-08T00:31:14.881Z,99687.29
2018-06-08T00:33:42.543Z,99684.83
2018-06-08T00:36:10.187Z,99683.66
2018-06-08T00:38:37.772Z,99681.48
2018-06-08T00:41:05.353Z,99681.14
2018-06-08T00:43:33.264Z,99676.53
2018-06-08T00:46:00.894Z,99679.19
2018-06-08T00:48:28.555Z,99677.38
2018-06-08T00:50:56.181Z,99679.26
2018-06-08T00:53:23.778Z,99677.46
2018-06-08T00:55:51.437Z,99669.16
2018-06-08T00:58:19.004Z,99668.50
2018-06-08T01:00:46.728Z,99673.78
2018-06-08T01:03:14.308Z,99674.94
2018-06-08T01:05:41.882Z,99669.80
2018-06-08T01:08:09.504Z,99665.98
2018-06-08T01:10:37.204Z,99674.30
2018-06-08T01:13:04.852Z,99667.25
2018-06-08T01:15:32.500Z,99663.65
2018-06-08T01:18:00.098Z,99664.95
2018-06-08T01:20:27.765Z,99671.92
2018-06-08T01:22:55.419Z,99670.62
2018-06-08T01:25:23.081Z,99669.93
2018-06-08T01:27:50.721Z,99665.11
2018-06-08T01:30:18.384Z,99672.23
2018-06-08T01:32:46.038Z,99675.39
2018-06-08T01:35:13.627Z,99677.53
2018-06-08T01:37:41.263Z,99670.42
2018-06-08T01:40:08.775Z,99675.08
2018-06-08T01:42:36.417Z,99666.09
2018-06-08T01:45:04.078Z,99664.45
2018-06-08T01:47:31.733Z,99665.95
2018-06-08T01:49:59.310Z,99664.63
2018-06-08T01:52:26.922Z,99670.75
2018-06-08T01:54:54.536Z,99671.24
2018-06-08T01:57:22.146Z,99674.38
2018-06-08T01:59:49.688Z,99667.73
2018-06-08T02:02:17.310Z,99669.05
2018-06-08T02:04:44.950Z,99671.05
2018-06-08T02:07:12.609Z,99667.70
2018-06-08T02:09:40.269Z,99671.04
2018-06-08T02:12:07.895Z,99673.53
2018-06-08T02:14:35.494Z,99672.54
2018-06-08T02:17:03.171Z,99675.52
2018-06-08T02:19:30.810Z,99674.70
2018-06-08T02:21:58.401Z,99674.19
2018-06-08T02:24:26.037Z,99675.52
2018-06-08T02:26:53.669Z,99673.05
2018-06-08T02:29:21.333Z,99672.58
2018-06-08T02:31:49.465Z,99672.25
2018-06-08T02:34:17.149Z,99675.92
2018-06-08T02:36:44.771Z,99669.45
2018-06-08T02:39:12.381Z,99677.55
2018-06-08T02:41:40.010Z,99667.61
2018-06-08T02:44:07.591Z,99673.58
2018-06-08T02:46:35.173Z,99669.78
2018-06-08T02:49:02.823Z,99673.42
2018-06-08T02:51:30.548Z,99680.86
2018-06-08T02:53:58.119Z,99677.88
2018-06-08T02:56:25.781Z,99675.56
2018-06-08T02:58:53.404Z,99670.94
2018-06-08T03:01:21.000Z,99669.94
2018-06-08T03:03:48.599Z,99679.55
2018-06-08T03:06:16.199Z,99674.58
2018-06-08T03:08:43.811Z,99678.41
2018-06-08T03:11:11.442Z,99680.53
2018-06-08T03:13:39.030Z,99681.05
2018-06-08T03:16:06.712Z,99677.56
2018-06-08T03:18:34.334Z,99677.73
2018-06-08T03:21:01.956Z,99666.30
2018-06-08T03:23:29.554Z,99672.25
2018-06-08T03:25:57.190Z,99665.30
2018-06-08T03:28:24.813Z,99674.22
2018-06-08T03:30:52.476Z,99677.56
2018-06-08T03:33:20.090Z,99677.73
2018-06-08T03:35:47.731Z,99677.24
2018-06-08T03:38:15.425Z,99678.08
2018-06-08T03:40:43.070Z,99676.09
2018-06-08T03:43:10.775Z,99674.42
2018-06-08T03:45:38.407Z,99683.04
2018-06-08T03:48:06.067Z,99681.20
2018-06-08T03:50:33.769Z,99678.55
2018-06-08T03:53:01.375Z,99676.08
2018-06-08T03:57:56.204Z,99684.00
2018-06-08T04:00:23.867Z,99688.80
2018-06-08T04:02:51.496Z,99683.79
2018-06-08T04:05:19.124Z,99685.77
2018-06-08T04:07:46.704Z,99687.03
2018-06-08T04:10:14.328Z,99683.80
2018-06-08T04:12:41.894Z,99690.05
2018-06-08T04:15:09.506Z,99687.33
2018-06-08T04:17:38.691Z,99687.88
2018-06-08T04:20:06.448Z,99681.16
2018-06-08T04:22:34.081Z,99684.88
2018-06-08T04:25:01.871Z,99683.13
2018-06-08T04:27:29.423Z,99685.05
2018-06-08T04:29:57.057Z,99690.59
2018-06-08T04:32:24.691Z,99693.36
2018-06-08T04:34:52.330Z,99681.59
2018-06-08T04:37:19.989Z,99682.90
2018-06-08T04:39:47.757Z,99688.20
2018-06-08T04:42:15.415Z,99690.38
2018-06-08T04:44:43.037Z,99689.37
2018-06-08T04:47:10.708Z,99680.96
2018-06-08T04:49:38.298Z,99678.30
2018-06-08T04:52:06.019Z,99674.22
2018-06-08T04:54:33.650Z,99671.78
2018-06-08T04:57:01.266Z,99675.44
2018-06-08T04:59:28.998Z,99673.55
2018-06-08T05:01:56.615Z,99679.54
2018-06-08T05:04:24.316Z,99682.77
2018-06-08T05:06:51.926Z,99692.34
2018-06-08T05:09:19.470Z,99690.92
2018-06-08T05:11:47.122Z,99691.02
2018-06-08T05:14:14.890Z,99687.31
2018-06-08T05:16:42.502Z,99689.83
2018-06-08T05:19:10.209Z,99687.44
2018-06-08T05:21:37.901Z,99690.42
2018-06-08T05:24:05.535Z,99690.30
2018-06-08T05:26:33.090Z,99691.45
2018-06-08T05:29:00.754Z,99692.39
2018-06-08T05:31:28.369Z,99690.47
2018-06-08T05:33:56.077Z,99682.88
2018-06-08T05:36:23.643Z,99677.92
2018-06-08T05:38:51.228Z,99675.13
2018-06-08T05:41:18.968Z,99682.13
2018-06-08T05:43:46.632Z,99674.59
2018-06-08T05:46:14.253Z,99672.00
2018-06-08T05:48:41.883Z,99673.42
2018-06-08T05:51:09.498Z,99674.31
2018-06-08T05:53:37.134Z,99680.37
2018-06-08T05:56:04.758Z,99679.95
2018-06-08T05:58:32.320Z,99679.74
2018-06-08T06:00:59.964Z,99677.11
2018-06-08T06:03:27.578Z,99672.73
2018-06-08T06:05:55.182Z,99679.72
2018-06-08T06:08:22.788Z,99676.92
2018-06-08T06:10:50.385Z,99684.89
2018-06-08T06:13:18.010Z,99678.88
2018-06-08T06:15:45.639Z,99679.94
2018-06-08T06:18:13.316Z,99682.84
2018-06-08T06:20:40.971Z,99683.59
2018-06-08T06:23:08.605Z,99683.16
2018-06-08T06:25:36.191Z,99684.25
2018-06-08T06:28:03.959Z,99678.66
2018-06-08T06:30:31.618Z,99682.75
2018-06-08T06:32:59.280Z,99685.12
2018-06-08T06:35:27.232Z,99689.89
2018-06-08T06:37:54.846Z,99687.62
2018-06-08T06:40:22.495Z,99687.73
2018-06-08T06:42:50.108Z,99685.26
2018-06-08T06:45:17.794Z,99684.30
2018-06-08T06:47:45.457Z,99673.63
2018-06-08T06:50:13.095Z,99679.09
2018-06-08T06:52:40.748Z,99684.58
2018-06-08T06:55:08.366Z,99674.97
2018-06-08T06:57:36.069Z,99678.04
2018-06-08T07:00:03.740Z,99687.27
2018-06-08T07:02:31.326Z,99690.78
2018-06-08T07:04:58.929Z,99690.73
2018-06-08T07:07:26.562Z,99691.91
2018-06-08T07:09:54.855Z,99695.86
2018-06-08T07:12:22.530Z,99698.06
2018-06-08T07:14:50.190Z,99693.67
2018-06-08T07:17:17.843Z,99695.70
2018-06-08T07:19:45.471Z,99694.53
2018-06-08T07:22:13.153Z,99692.83
2018-06-08T07:24:40.762Z,99695.84
2018-06-08T07:27:08.543Z,99691.19
2018-06-08T07:29:36.193Z,99694.94
2018-06-08T07:32:03.859Z,99699.16
2018-06-08T07:34:31.535Z,99697.37
2018-06-08T07:36:59.744Z,99693.34
2018-06-08T07:39:27.398Z,99696.09
2018-06-08T07:41:54.980Z,99695.91
2018-06-08T07:44:23.342Z,99698.13
2018-06-08T07:46:51.084Z,99684.69
2018-06-08T07:49:18.902Z,99697.36
2018-06-08T07:51:46.558Z,99695.05
2018-06-08T07:54:14.185Z,99696.32
2018-06-08T07:56:41.843Z,99697.38
2018-06-08T07:59:09.571Z,99697.22
2018-06-08T08:01:37.208Z,99700.75
2018-06-08T08:04:05.146Z,99704.56
2018-06-08T08:06:32.789Z,99702.41
2018-06-08T08:09:00.456Z,99697.77
2018-06-08T08:11:28.152Z,99698.86
2018-06-08T08:13:55.723Z,99690.52
2018-06-08T08:16:23.415Z,99694.97
2018-06-08T08:18:50.996Z,99691.92
2018-06-08T08:21:18.619Z,99691.48
2018-06-08T08:23:46.339Z,99692.04
2018-06-08T08:26:13.961Z,99686.69
2018-06-08T08:28:41.592Z,99686.89
2018-06-08T08:31:09.208Z,99682.32
2018-06-08T08:33:36.834Z,99680.97
2018-06-08T08:36:04.565Z,99687.70
2018-06-08T08:38:32.194Z,99685.17
2018-06-08T08:40:59.814Z,99688.53
2018-06-08T08:43:27.448Z,99685.79
2018-06-08T08:45:55.120Z,99684.23
2018-06-08T08:48:22.746Z,99683.02
2018-06-08T08:50:50.428Z,99681.77
2018-06-08T08:53:18.062Z,99680.91
2018-06-08T08:55:45.694Z,99682.34
2018-06-08T08:58:13.338Z,99676.70
2018-06-08T09:00:40.977Z,99678.48
2018-06-08T09:03:08.657Z,99673.09
2018-06-08T09:05:36.280Z,99672.02
2018-06-08T09:08:05.026Z,99673.77
2018-06-08T09:10:32.702Z,99667.17
2018-06-08T09:13:00.337Z,99666.20
2018-06-08T09:15:28.005Z,99658.66
2018-06-08T09:17:55.639Z,99654.09
2018-06-08T09:20:23.297Z,99651.92
2018-06-08T09:22:50.893Z,99652.69
2018-06-08T09:25:18.641Z,99649.73
2018-06-08T09:27:46.342Z,99647.79
2018-06-08T09:30:14.063Z,99643.68
2018-06-08T09:32:41.646Z,99646.69
2018-06-08T09:35:09.258Z,99646.44
2018-06-08T09:37:36.923Z,99638.01
2018-06-08T09:40:04.927Z,99637.48
2018-06-08T09:42:32.583Z,99633.94
2018-06-08T09:45:00.214Z,99636.94
2018-06-08T09:47:27.870Z,99639.09
2018-06-08T09:49:55.478Z,99646.73
2018-06-08T09:52:23.081Z,99642.90
2018-06-08T09:54:50.741Z,99648.48
2018-06-08T09:57:18.337Z,99643.56
2018-06-08T09:59:45.979Z,99648.70
2018-06-08T10:02:13.633Z,99644.45
2018-06-08T10:04:41.771Z,99631.73
2018-06-08T10:07:09.401Z,99630.65
2018-06-08T10:09:36.960Z,99627.97
2018-06-08T10:12:04.585Z,99625.52
2018-06-08T10:14:32.243Z,99622.24
2018-06-08T10:16:59.889Z,99620.89
2018-06-08T10:19:27.507Z,99623.34
2018-06-08T10:21:55.223Z,99617.10
2018-06-08T10:24:22.801Z,99621.17
2018-06-08T10:26:50.421Z,99618.12
2018-06-08T10:29:17.982Z,99616.47
2018-06-08T10:31:45.664Z,99615.88
2018-06-08T10:34:13.303Z,99616.20
2018-06-08T10:36:40.942Z,99613.76
2018-06-08T10:39:08.554Z,99605.92
2018-06-08T10:41:36.110Z,99619.55
2018-06-08T10:44:03.726Z,99606.76
2018-06-08T10:46:31.362Z,99604.84
2018-06-08T10:48:59.021Z,99608.88
2018-06-08T10:51:26.595Z,99611.30
2018-06-08T10:53:54.249Z,99613.50
2018-06-08T10:56:21.927Z,99607.58
2018-06-08T10:58:49.599Z,99606.94
2018-06-08T11:01:17.266Z,99606.91
2018-06-08T11:03:44.933Z,99591.69
2018-06-08T11:06:12.601Z,99605.71
2018-06-08T11:08:40.182Z,99599.58
2018-06-08T11:11:08.436Z,99597.70
2018-06-08T11:13:36.126Z,99592.88
2018-06-08T11:16:03.762Z,99595.64
2018-06-08T11:18:31.356Z,99598.42
2018-06-08T11:20:59.014Z,99594.75
2018-06-08T11:23:26.606Z,99595.25
2018-06-08T11:25:54.294Z,99585.95
2018-06-08T11:28:21.990Z,99583.55
2018-06-08T11:30:49.584Z,99580.74
2018-06-08T11:33:17.238Z,99576.97
2018-06-08T11:35:44.881Z,99574.64
2018-06-08T11:38:12.509Z,99571.55
2018-06-08T11:40:40.190Z,99571.47
2018-06-08T11:43:07.836Z,99567.11
2018-06-08T11:45:35.639Z,99560.69
2018-06-08T11:48:03.325Z,99560.76
2018-06-08T11:50:30.964Z,99560.28
2018-06-08T11:52:58.536Z,99563.28
2018-06-08T11:55:26.489Z,99559.77
2018-06-08T11:57:54.216Z,99567.18
2018-06-08T12:00:21.942Z,99570.50
2018-06-08T12:02:49.577Z,99557.43
2018-06-08T12:05:17.182Z,99559.17
2018-06-08T12:07:44.793Z,99551.97
2018-06-08T12:10:12.469Z,99561.48
2018-06-08T12:12:40.121Z,99561.55
2018-06-08T12:15:07.860Z,99559.39
2018-06-08T12:17:35.551Z,99557.16
2018-06-08T12:20:03.251Z,99555.52
2018-06-08T12:22:30.980Z,99548.16
2018-06-08T12:24:58.584Z,99560.75
2018-06-08T12:27:26.359Z,99549.59
2018-06-08T12:29:53.982Z,99550.78
2018-06-08T12:32:21.654Z,99535.21
2018-06-08T12:34:49.258Z,99543.95
2018-06-08T12:37:16.844Z,99546.59
2018-06-08T12:39:44.454Z,99539.80
2018-06-08T12:42:12.070Z,99523.55
2018-06-08T12:44:39.709Z,99540.17
2018-06-08T12:47:07.334Z,99525.95
2018-06-08T12:49:35.038Z,99520.23
2018-06-08T12:52:02.693Z,99515.29
2018-06-08T12:54:30.326Z,99508.73
2018-06-08T12:56:57.968Z,99429.20
2018-06-08T12:59:25.719Z,99496.23
2018-06-08T13:01:53.401Z,99484.35
2018-06-08T13:04:21.261Z,99491.90
2018-06-08T13:06:48.901Z,99500.55
2018-06-08T13:09:16.491Z,99508.30
2018-06-08T13:11:44.116Z,99504.05
2018-06-08T13:14:11.813Z,99490.23
2018-06-08T13:16:39.397Z,99486.40
2018-06-08T13:19:07.089Z,99493.36
2018-06-08T13:21:34.752Z,99500.64
2018-06-08T13:24:02.421Z,99497.19
2018-06-08T13:26:30.070Z,99494.11
2018-06-08T13:28:57.736Z,99487.36
2018-06-08T13:31:25.319Z,99481.89
2018-06-08T13:33:52.958Z,99472.38
2018-06-08T13:36:20.892Z,99472.31
2018-06-08T13:38:48.545Z,99475.05
2018-06-08T13:41:16.155Z,99481.58
2018-06-08T13:43:44.055Z,99463.51
2018-06-08T13:46:53.074Z,99464.70
2018-06-08T13:49:20.733Z,99473.95
2018-06-08T13:51:49.195Z,99473.70
2018-06-08T13:54:16.900Z,99474.36
2018-06-08T13:56:44.520Z,99447.02
2018-06-08T13:59:12.085Z,99450.56
2018-06-08T14:01:39.739Z,99445.91
2018-06-08T14:04:07.449Z,99451.05
2018-06-08T14:06:35.067Z,99444.97
2018-06-08T14:09:04.570Z,99430.63
2018-06-08T14:11:32.231Z,99433.00
2018-06-08T14:13:59.826Z,99429.48
2018-06-08T14:16:27.450Z,99430.91
2018-06-08T14:18:55.116Z,99424.04
2018-06-08T14:21:22.791Z,99418.56
2018-06-08T14:23:51.000Z,99418.77
2018-06-08T14:26:18.640Z,99424.70
2018-06-08T14:28:46.305Z,99417.10
2018-06-08T14:31:13.981Z,99414.25
2018-06-08T14:33:41.709Z,99411.20
2018-06-08T14:36:09.460Z,99412.14
2018-06-08T14:38:37.077Z,99418.50
2018-06-08T14:41:04.691Z,99410.36
2018-06-08T14:43:32.367Z,99408.98
2018-06-08T14:46:00.120Z,99398.58
2018-06-08T14:48:27.723Z,99396.06
2018-06-08T14:50:55.374Z,99402.44
2018-06-08T14:53:23.061Z,99388.28
2018-06-08T14:55:50.727Z,99391.45
2018-06-08T14:58:18.399Z,99384.21
2018-06-08T15:00:46.095Z,99391.09
2018-06-08T15:03:13.729Z,99394.72
2018-06-08T15:05:41.413Z,99402.44
2018-06-08T15:08:09.137Z,99397.56
2018-06-08T15:10:36.855Z,99408.39
2018-06-08T15:13:04.585Z,99394.05
2018-06-08T15:15:32.200Z,99396.56
2018-06-08T15:17:59.829Z,99392.01
2018-06-08T15:20:27.469Z,99392.19
2018-06-08T15:22:55.059Z,99387.89
2018-06-08T15:25:22.705Z,99384.69
2018-06-08T15:27:50.302Z,99389.74
2018-06-08T15:30:17.930Z,99394.23
2018-06-08T15:32:45.522Z,99400.22
2018-06-08T15:35:13.271Z,99393.26
2018-06-08T15:37:40.849Z,99380.45
2018-06-08T15:40:08.537Z,99387.27
2018-06-08T15:42:36.178Z,99379.42
2018-06-08T15:45:03.862Z,99371.10
2018-06-08T15:47:31.495Z,99374.09
2018-06-08T15:49:59.076Z,99368.69
2018-06-08T15:52:26.712Z,99355.97
2018-06-08T15:54:54.350Z,99357.05
2018-06-08T15:57:22.037Z,99357.28
2018-06-08T15:59:49.725Z,99351.18
2018-06-08T16:02:17.637Z,99348.31
2018-06-08T16:04:45.545Z,99337.31
2018-06-08T16:07:13.163Z,99342.28
2018-06-08T16:09:40.757Z,99341.20
2018-06-08T16:12:08.357Z,99350.70
2018-06-08T16:14:36.041Z,99352.13
2018-06-08T16:17:04.016Z,99355.92
2018-06-08T16:19:31.652Z,99352.89
2018-06-08T16:21:59.281Z,99349.89
2018-06-08T16:24:26.941Z,99357.30
2018-06-08T16:26:54.635Z,99346.00
2018-06-08T16:29:22.367Z,99347.09
2018-06-08T16:31:50.034Z,99343.42
2018-06-08T16:34:17.728Z,99340.30
2018-06-08T16:36:45.439Z,99348.83
2018-06-08T16:39:13.063Z,99355.91
2018-06-08T16:41:40.686Z,99350.45
2018-06-08T16:44:08.354Z,99352.33
2018-06-08T16:46:36.004Z,99344.35
2018-06-08T16:49:03.689Z,99352.67
2018-06-08T16:51:31.360Z,99340.55
2018-06-08T16:53:58.946Z,99336.80
2018-06-08T16:56:26.628Z,99336.58
2018-06-08T16:58:54.269Z,99331.33
2018-06-08T17:01:21.918Z,99334.89
2018-06-08T17:03:49.537Z,99333.91
2018-06-08T17:06:17.174Z,99337.94
2018-06-08T17:08:44.947Z,99342.63
2018-06-08T17:11:12.617Z,99347.53
2018-06-08T17:13:40.292Z,99341.52
2018-06-08T17:16:07.943Z,99346.60
2018-06-08T17:18:35.621Z,99349.03
2018-06-08T17:21:03.331Z,99346.05
2018-06-08T17:23:30.964Z,99350.48
2018-06-08T17:25:58.615Z,99351.14
2018-06-08T17:28:26.318Z,99357.12
2018-06-08T17:30:54.005Z,99350.63
2018-06-08T17:33:21.618Z,99348.77
2018-06-08T17:35:49.238Z,99355.66
2018-06-08T17:38:16.927Z,99348.39
2018-06-08T17:40:44.655Z,99346.51
2018-06-08T17:43:12.350Z,99347.91
2018-06-08T17:45:40.002Z,99340.86
2018-06-08T17:48:07.714Z,99336.22
2018-06-08T17:50:35.300Z,99336.77
2018-06-08T17:53:02.929Z,99332.71
2018-06-08T17:55:30.580Z,99337.30
2018-06-08T17:57:58.433Z,99335.43
2018-06-08T18:00:26.093Z,99340.56
2018-06-08T18:02:53.783Z,99342.20
2018-06-08T18:05:21.420Z,99337.03
2018-06-08T18:07:49.081Z,99341.64
2018-06-08T18:10:16.737Z,99342.12
2018-06-08T18:12:44.401Z,99342.66
2018-06-08T18:15:12.065Z,99346.16
2018-06-08T18:17:39.776Z,99341.80
2018-06-08T18:20:07.399Z,99342.87
2018-06-08T18:22:35.055Z,99336.13
2018-06-08T18:25:02.682Z,99345.32
2018-06-08T18:27:30.412Z,99351.26
2018-06-08T18:29:58.040Z,99354.71
2018-06-08T18:32:25.719Z,99359.00
2018-06-08T18:34:53.334Z,99360.59
2018-06-08T18:37:21.001Z,99363.28
2018-06-08T18:39:48.659Z,99367.58
2018-06-08T18:42:16.405Z,99365.72
2018-06-08T18:44:44.030Z,99395.94
2018-06-08T18:47:11.637Z,99409.62
2018-06-08T18:49:39.273Z,99403.44
2018-06-08T18:52:06.925Z,99409.16
2018-06-08T18:54:34.521Z,99424.28
2018-06-08T18:57:02.191Z,99432.04
2018-06-08T18:59:29.868Z,99436.55
2018-06-08T19:01:57.674Z,99435.66
2018-06-08T19:04:25.308Z,99418.80
2018-06-08T19:06:52.923Z,99421.52
2018-06-08T19:09:20.522Z,99417.78
2018-06-08T19:11:48.458Z,99417.34
2018-06-08T19:14:16.130Z,99414.17
2018-06-08T19:16:43.890Z,99416.64
2018-06-08T19:19:11.518Z,99410.75
2018-06-08T19:21:39.177Z,99411.20
2018-06-08T19:24:06.788Z,99414.72
2018-06-08T19:26:34.467Z,99419.45
2018-06-08T19:29:02.093Z,99419.45
2018-06-08T19:31:29.729Z,99421.75
2018-06-08T19:33:57.419Z,99427.87
2018-06-08T19:36:25.040Z,99428.59
2018-06-08T19:38:52.673Z,99436.14
2018-06-08T19:41:20.372Z,99435.70
2018-06-08T19:43:47.985Z,99440.94
2018-06-08T19:46:15.695Z,99439.61
2018-06-08T19:48:43.305Z,99437.75
2018-06-08T19:51:10.929Z,99442.58
2018-06-08T19:53:38.589Z,99449.17
2018-06-08T19:56:06.521Z,99446.00
2018-06-08T19:58:34.289Z,99441.41
2018-06-08T20:01:02.133Z,99435.47
2018-06-08T20:03:29.871Z,99434.56
2018-06-08T20:05:57.843Z,99435.50
2018-06-08T20:08:25.607Z,99433.69
2018-06-08T20:10:53.323Z,99432.13
2018-06-08T20:13:21.246Z,99433.82
2018-06-08T20:15:49.038Z,99437.28
2018-06-08T20:18:16.975Z,99428.86
2018-06-08T20:20:44.910Z,99427.52
2018-06-08T20:23:12.694Z,99422.53
2018-06-08T20:25:40.388Z,99418.62
2018-06-08T20:28:08.712Z,99418.09
2018-06-08T20:30:36.446Z,99421.91
2018-06-08T20:33:04.726Z,99422.03
2018-06-08T20:35:32.708Z,99420.24
2018-06-08T20:38:00.807Z,99429.95
2018-06-08T20:40:28.525Z,99423.89
2018-06-08T20:42:56.246Z,99423.59
2018-06-08T20:45:24.036Z,99419.84
2018-06-08T20:47:51.789Z,99422.75
2018-06-08T20:50:19.593Z,99421.17
2018-06-08T20:52:47.449Z,99419.37
2018-06-08T20:55:15.417Z,99418.12
2018-06-08T20:57:58.696Z,99420.39
2018-06-08T21:00:26.490Z,99418.56
2018-06-08T21:02:54.281Z,99420.00
2018-06-08T21:05:22.001Z,99422.92
2018-06-08T21:07:49.775Z,99425.74
2018-06-08T21:10:17.562Z,99425.91
2018-06-08T21:12:45.221Z,99424.02
2018-06-08T21:15:12.940Z,99426.18
2018-06-08T21:17:40.805Z,99427.63
2018-06-08T21:20:08.593Z,99422.98
2018-06-08T21:22:36.352Z,99424.30
2018-06-08T21:25:04.176Z,99430.38
2018-06-08T21:27:32.065Z,99422.37
2018-06-08T21:29:59.907Z,99429.11
2018-06-08T21:32:27.566Z,99429.98
2018-06-08T21:34:55.294Z,99429.91
2018-06-08T21:37:22.998Z,99423.83
2018-06-08T21:39:50.718Z,99427.23
2018-06-08T21:42:18.823Z,99429.15
2018-06-08T21:44:46.660Z,99428.43
2018-06-08T21:47:14.393Z,99431.71
2018-06-08T21:49:42.164Z,99429.67
2018-06-08T21:52:10.030Z,99430.30
2018-06-08T21:54:37.800Z,99432.99
2018-06-08T21:57:05.690Z,99427.46
2018-06-08T21:59:33.434Z,99425.62
2018-06-08T22:02:01.342Z,99423.06
2018-06-08T22:04:29.145Z,99429.75
2018-06-08T22:06:57.152Z,99430.30
2018-06-08T22:09:25.010Z,99439.55
2018-06-08T22:11:52.929Z,99435.78
2018-06-08T22:14:20.712Z,99437.21
2018-06-08T22:16:48.461Z,99432.10
2018-06-08T22:19:16.177Z,99424.91
2018-06-08T22:21:44.011Z,99421.63
2018-06-08T22:24:11.721Z,99422.25
2018-06-08T22:26:39.573Z,99429.75
2018-06-08T22:29:07.634Z,99431.17
2018-06-08T22:31:35.417Z,99427.36
2018-06-08T22:34:03.150Z,99426.97
2018-06-08T22:36:30.868Z,99431.48
2018-06-08T22:38:58.566Z,99425.09
2018-06-08T22:41:26.276Z,99427.25
2018-06-08T22:43:54.056Z,99425.20
2018-06-08T22:46:21.853Z,99419.63
2018-06-08T22:48:49.526Z,99423.04
2018-06-08T22:51:17.304Z,99422.61
2018-06-08T22:53:44.936Z,99418.91
2018-06-08T22:56:12.639Z,99420.36
2018-06-08T22:58:40.410Z,99421.38
2018-06-08T23:01:08.269Z,99424.98
2018-06-08T23:03:37.126Z,99421.28
2018-06-08T23:06:04.890Z,99418.37
2018-06-08T23:08:32.745Z,99417.02
2018-06-08T23:11:00.542Z,99425.62
2018-06-08T23:13:28.316Z,99428.51
2018-06-08T23:15:56.937Z,99433.99
2018-06-08T23:18:24.663Z,99429.77
2018-06-08T23:20:52.381Z,99431.78
2018-06-08T23:23:20.111Z,99443.92
2018-06-08T23:25:47.821Z,99431.91
2018-06-08T23:28:15.525Z,99434.45
2018-06-08T23:30:43.265Z,99428.99
2018-06-08T23:33:10.960Z,99432.05
2018-06-08T23:35:38.827Z,99433.34
2018-06-08T23:38:06.483Z,99428.30
2018-06-08T23:40:34.127Z,99428.81
2018-06-08T23:43:03.391Z,99429.28
2018-06-08T23:45:31.204Z,99424.20
2018-06-08T23:47:59.000Z,99428.52
2018-06-08T23:50:26.682Z,99428.33
2018-06-08T23:52:54.447Z,99427.53
2018-06-08T23:55:22.148Z,99433.34
2018-06-08T23:57:49.850Z,99437.83
